Time;durP1;ratioP1;P1;durP2;ratioP2;P2;SDS_P1;SDS_P2;PMS_P1;PMS_P2;Temp;Humidity;BMP_temperature;BMP_pressure;BME280_temperature;BME280_humidity;BME280_pressure;Samples;Min_cycle;Max_cycle;Signal;HPM_P1;HPM_P2
2023/09/17 00:01:05;;;;;;;;;;;16.60;99.90;;;;;;5125742;27;20372;-41
2023/09/17 00:03:32;;;;;;;;;;;16.60;99.90;;;;;;5132454;28;19960;-42
2023/09/17 00:05:58;;;;;;;;;;;16.50;99.90;;;;;;5133864;28;19992;-43
2023/09/17 00:08:23;;;;;;;;;;;16.60;99.90;;;;;;5133592;28;20361;-43
2023/09/17 00:10:49;;;;;;;;;;;16.50;99.90;;;;;;5132430;28;20323;-47
2023/09/17 00:13:14;;;;;;;;;;;16.60;99.90;;;;;;5113054;28;19938;-46
2023/09/17 00:15:40;;;;;;;;;;;16.50;99.90;;;;;;5113074;28;20360;-41
2023/09/17 00:18:06;;;;;;;;;;;16.60;99.90;;;;;;5113070;28;20282;-43
2023/09/17 00:20:31;;;;;;;;;;;16.60;99.90;;;;;;5112726;28;19908;-43
2023/09/17 00:22:57;;;;;;;;;;;16.50;99.90;;;;;;5113032;28;19908;-45
2023/09/17 00:25:22;;;;;;;;;;;16.60;99.90;;;;;;5118762;28;19914;-43
2023/09/17 00:27:48;;;;;;;;;;;16.60;99.90;;;;;;5133529;28;19918;-42
2023/09/17 00:30:15;;;;;;;;;;;16.50;99.90;;;;;;5133045;28;20285;-43
2023/09/17 00:32:40;;;;;;;;;;;16.60;99.90;;;;;;5133089;28;19920;-43
2023/09/17 00:35:06;;;;;;;;;;;16.60;99.90;;;;;;5133237;28;19915;-43
2023/09/17 00:37:31;;;;;;;;;;;16.60;99.90;;;;;;5135082;27;20457;-43
2023/09/17 00:39:57;;;;;;;;;;;16.50;99.90;;;;;;5137494;27;19914;-44
2023/09/17 00:42:23;;;;;;;;;;;16.60;99.90;;;;;;5137374;27;19908;-42
2023/09/17 00:44:48;;;;;;;;;;;16.60;99.90;;;;;;5137351;27;20378;-41
2023/09/17 00:47:14;;;;;;;;;;;16.60;99.90;;;;;;5137096;27;19957;-44
2023/09/17 00:49:40;;;;;;;;;;;16.60;99.90;;;;;;5137282;27;20358;-42
2023/09/17 00:52:10;;;;;;;;;;;16.60;99.90;;;;;;5140416;27;19942;-42
2023/09/17 00:54:35;;;;;;;;;;;16.60;99.90;;;;;;5158030;27;19911;-43
2023/09/17 00:57:01;;;;;;;;;;;16.70;99.90;;;;;;5157873;27;19930;-43
2023/09/17 00:59:26;;;;;;;;;;;16.70;99.90;;;;;;5157771;27;20373;-43
2023/09/17 01:01:52;;;;;;;;;;;16.70;99.90;;;;;;5157782;27;20273;-43
2023/09/17 01:04:17;;;;;;;;;;;16.70;99.90;;;;;;5157600;27;19913;-43
2023/09/17 01:06:43;;;;;;;;;;;16.70;99.90;;;;;;5157732;27;19914;-44
2023/09/17 01:09:09;;;;;;;;;;;16.70;99.90;;;;;;5157539;27;19998;-44
2023/09/17 01:11:35;;;;;;;;;;;16.70;99.90;;;;;;5157579;27;20358;-42
2023/09/17 01:14:15;;;;;;;;;;;16.70;99.90;;;;;;5157408;27;19914;-41
2023/09/17 01:16:42;;;;;;;;;;;16.70;99.90;;;;;;5145654;27;19911;-42
2023/09/17 01:19:10;;;;;;;;;;;16.70;99.90;;;;;;5133732;27;19918;-42
2023/09/17 01:21:40;;;;;;;;;;;16.70;99.90;;;;;;5116128;28;19914;-43
2023/09/17 01:24:13;;;;;;;;;;;16.70;99.90;;;;;;5116088;28;19931;-43
2023/09/17 01:26:39;;;;;;;;;;;16.70;99.90;;;;;;5115952;28;19933;-43
2023/09/17 01:29:05;;;;;;;;;;;16.70;99.90;;;;;;5115804;28;19972;-42
2023/09/17 01:31:30;;;;;;;;;;;16.70;99.90;;;;;;5115584;28;20263;-43
2023/09/17 01:33:56;;;;;;;;;;;16.80;99.90;;;;;;5116056;28;19908;-41
2023/09/17 01:36:33;;;;;;;;;;;16.70;99.90;;;;;;5115770;28;19912;-43
2023/09/17 01:39:18;;;;;;;;;;;16.70;99.90;;;;;;5115838;28;19914;-43
2023/09/17 01:41:44;;;;;;;;;;;16.80;99.90;;;;;;5114896;28;20366;-43
2023/09/17 01:44:10;;;;;;;;;;;16.80;99.90;;;;;;5115826;28;19995;-44
2023/09/17 01:46:37;;;;;;;;;;;16.80;99.90;;;;;;5115622;28;19998;-41
2023/09/17 01:49:03;;;;;;;;;;;16.80;99.90;;;;;;5114161;28;19908;-43
2023/09/17 01:51:30;;;;;;;;;;;16.80;99.90;;;;;;5115321;28;19965;-44
2023/09/17 01:53:55;;;;;;;;;;;16.70;99.90;;;;;;5153664;27;19911;-44
2023/09/17 01:56:21;;;;;;;;;;;16.70;99.90;;;;;;5156652;27;20250;-41
2023/09/17 01:58:47;;;;;;;;;;;16.70;99.90;;;;;;5156680;27;19907;-46
2023/09/17 02:01:13;;;;;;;;;;;16.70;99.90;;;;;;5156609;27;20330;-44
2023/09/17 02:03:39;;;;;;;;;;;16.70;99.90;;;;;;5156665;27;19907;-42
2023/09/17 02:06:04;;;;;;;;;;;16.70;99.90;;;;;;5156374;27;19913;-42
2023/09/17 02:08:30;;;;;;;;;;;16.70;99.90;;;;;;5156583;27;20281;-44
2023/09/17 02:10:56;;;;;;;;;;;16.60;99.90;;;;;;5156361;27;20400;-43
2023/09/17 02:13:21;;;;;;;;;;;16.70;99.90;;;;;;5156312;27;19907;-44
2023/09/17 02:15:47;;;;;;;;;;;16.70;99.90;;;;;;5156349;27;19907;-43
2023/09/17 02:18:12;;;;;;;;;;;16.60;99.90;;;;;;5156254;27;19908;-43
2023/09/17 02:20:38;;;;;;;;;;;16.70;99.90;;;;;;5156201;27;19956;-42
2023/09/17 02:23:04;;;;;;;;;;;16.60;99.90;;;;;;5155793;27;19967;-41
2023/09/17 02:25:29;;;;;;;;;;;16.60;99.90;;;;;;5155842;27;19911;-44
2023/09/17 02:27:55;;;;;;;;;;;16.50;99.90;;;;;;5155812;27;19911;-45
2023/09/17 02:30:20;;;;;;;;;;;16.60;99.90;;;;;;5151593;27;19923;-43
2023/09/17 02:32:45;;;;;;;;;;;16.50;99.90;;;;;;5135036;27;20316;-43
2023/09/17 02:35:11;;;;;;;;;;;16.60;99.90;;;;;;5134994;27;20416;-43
2023/09/17 02:37:37;;;;;;;;;;;16.60;99.90;;;;;;5135284;27;19907;-47
2023/09/17 02:40:04;;;;;;;;;;;16.60;99.90;;;;;;5135022;27;20290;-45
2023/09/17 02:42:30;;;;;;;;;;;16.50;99.90;;;;;;5150297;27;19918;-43
2023/09/17 02:44:55;;;;;;;;;;;16.50;99.90;;;;;;5155853;27;20013;-43
2023/09/17 02:47:21;;;;;;;;;;;16.60;99.90;;;;;;5155316;27;19917;-44
2023/09/17 02:49:46;;;;;;;;;;;16.60;99.90;;;;;;5148422;27;19918;-43
2023/09/17 02:52:12;;;;;;;;;;;16.60;99.90;;;;;;5149011;27;20389;-42
2023/09/17 02:54:37;;;;;;;;;;;16.60;99.90;;;;;;5155279;27;19915;-43
2023/09/17 02:57:03;;;;;;;;;;;16.60;99.90;;;;;;5134749;27;19952;-42
2023/09/17 02:59:29;;;;;;;;;;;16.60;99.90;;;;;;5134170;27;20270;-43
2023/09/17 03:01:54;;;;;;;;;;;16.60;99.90;;;;;;5134682;27;19907;-42
2023/09/17 03:04:20;;;;;;;;;;;16.60;99.90;;;;;;5134389;27;19912;-43
2023/09/17 03:06:45;;;;;;;;;;;16.60;99.90;;;;;;5134615;27;19942;-42
2023/09/17 03:09:13;;;;;;;;;;;16.60;99.90;;;;;;5113987;28;19915;-43
2023/09/17 03:11:39;;;;;;;;;;;16.60;99.90;;;;;;5113883;28;20378;-40
2023/09/17 03:14:05;;;;;;;;;;;16.60;99.90;;;;;;5113706;28;20290;-41
2023/09/17 03:16:31;;;;;;;;;;;16.60;99.90;;;;;;5113997;28;19908;-46
2023/09/17 03:18:56;;;;;;;;;;;16.60;99.90;;;;;;5113821;28;19911;-44
2023/09/17 03:21:21;;;;;;;;;;;16.60;99.90;;;;;;5113764;28;19912;-43
2023/09/17 03:23:47;;;;;;;;;;;16.60;99.90;;;;;;5113848;28;19946;-44
2023/09/17 03:26:12;;;;;;;;;;;16.60;99.90;;;;;;5113540;28;20366;-43
2023/09/17 03:28:38;;;;;;;;;;;16.60;99.90;;;;;;5130306;27;19961;-43
2023/09/17 03:31:04;;;;;;;;;;;16.60;99.90;;;;;;5133692;27;19961;-43
2023/09/17 03:33:30;;;;;;;;;;;16.60;99.90;;;;;;5133910;27;19919;-44
2023/09/17 03:35:56;;;;;;;;;;;16.60;99.90;;;;;;5134213;27;19907;-42
2023/09/17 03:38:21;;;;;;;;;;;16.60;99.90;;;;;;5133949;27;19907;-45
2023/09/17 03:40:47;;;;;;;;;;;16.60;99.90;;;;;;5134162;27;19908;-42
2023/09/17 03:43:12;;;;;;;;;;;16.60;99.90;;;;;;5134021;27;19967;-43
2023/09/17 03:45:38;;;;;;;;;;;16.60;99.90;;;;;;5153958;27;19907;-41
2023/09/17 03:48:04;;;;;;;;;;;16.60;99.90;;;;;;5154568;27;19945;-44
2023/09/17 03:50:30;;;;;;;;;;;16.60;99.90;;;;;;5152797;27;19993;-43
2023/09/17 03:52:57;;;;;;;;;;;16.70;99.90;;;;;;5148002;27;20274;-41
2023/09/17 03:55:23;;;;;;;;;;;16.60;99.90;;;;;;5147732;27;20373;-43
2023/09/17 03:57:49;;;;;;;;;;;16.60;99.90;;;;;;5154364;27;19911;-43
2023/09/17 04:00:15;;;;;;;;;;;16.60;99.90;;;;;;5133743;27;19908;-45
2023/09/17 04:02:41;;;;;;;;;;;16.60;99.90;;;;;;5133724;27;19908;-41
2023/09/17 04:05:11;;;;;;;;;;;16.60;99.90;;;;;;5133679;27;19908;-42
2023/09/17 04:07:37;;;;;;;;;;;16.60;99.90;;;;;;5133699;28;19915;-43
2023/09/17 04:10:05;;;;;;;;;;;16.60;99.90;;;;;;5134046;27;19915;-44
2023/09/17 04:12:32;;;;;;;;;;;16.60;99.90;;;;;;5156171;27;20255;-42
2023/09/17 04:14:57;;;;;;;;;;;16.60;99.90;;;;;;5158695;27;20377;-41
2023/09/17 04:17:23;;;;;;;;;;;16.60;99.90;;;;;;5158496;27;19958;-42
2023/09/17 04:19:50;;;;;;;;;;;16.60;99.90;;;;;;5158946;27;19994;-41
2023/09/17 04:22:16;;;;;;;;;;;16.60;99.90;;;;;;5158448;27;19910;-43
2023/09/17 04:24:42;;;;;;;;;;;16.60;99.90;;;;;;5158395;27;20334;-44
2023/09/17 04:27:08;;;;;;;;;;;16.60;99.90;;;;;;5158458;27;19952;-43
2023/09/17 04:29:33;;;;;;;;;;;16.60;99.90;;;;;;5158236;27;19911;-42
2023/09/17 04:31:59;;;;;;;;;;;16.60;99.90;;;;;;5157812;27;19919;-41
2023/09/17 04:34:25;;;;;;;;;;;16.60;99.90;;;;;;5158304;27;19958;-44
2023/09/17 04:36:51;;;;;;;;;;;16.60;99.90;;;;;;5158261;27;19907;-42
2023/09/17 04:39:16;;;;;;;;;;;16.60;99.90;;;;;;5158245;27;19914;-43
2023/09/17 04:41:43;;;;;;;;;;;16.60;99.90;;;;;;5158225;27;20033;-42
2023/09/17 04:44:10;;;;;;;;;;;16.60;99.90;;;;;;5158160;27;20043;-42
2023/09/17 04:46:40;;;;;;;;;;;16.60;99.90;;;;;;5157216;27;19911;-43
2023/09/17 04:49:05;;;;;;;;;;;16.60;99.90;;;;;;5136998;27;19915;-45
2023/09/17 04:51:31;;;;;;;;;;;16.60;99.90;;;;;;5137131;27;19915;-42
2023/09/17 04:53:57;;;;;;;;;;;16.60;99.90;;;;;;5137188;27;19962;-41
2023/09/17 04:56:22;;;;;;;;;;;16.60;99.90;;;;;;5139544;27;19985;-42
2023/09/17 04:58:48;;;;;;;;;;;16.60;99.90;;;;;;5157498;27;19967;-41
2023/09/17 05:01:13;;;;;;;;;;;16.60;99.90;;;;;;5146585;27;19914;-43
2023/09/17 05:03:40;;;;;;;;;;;16.50;99.90;;;;;;5155327;27;19911;-44
2023/09/17 05:06:05;;;;;;;;;;;16.50;99.90;;;;;;5153173;27;20427;-44
2023/09/17 05:08:32;;;;;;;;;;;16.50;99.90;;;;;;5136945;27;19907;-46
2023/09/17 05:10:57;;;;;;;;;;;16.60;99.90;;;;;;5137060;27;19916;-44
2023/09/17 05:13:22;;;;;;;;;;;16.50;99.90;;;;;;5136659;27;19961;-42
2023/09/17 05:15:48;;;;;;;;;;;16.60;99.90;;;;;;5136773;27;19915;-42
2023/09/17 05:18:13;;;;;;;;;;;16.50;99.90;;;;;;5140470;27;20005;-43
2023/09/17 05:20:43;;;;;;;;;;;16.50;99.90;;;;;;5157480;27;20289;-43
2023/09/17 05:23:09;;;;;;;;;;;16.50;99.90;;;;;;5157003;27;20001;-41
2023/09/17 05:25:35;;;;;;;;;;;16.50;99.90;;;;;;5157233;27;19914;-41
2023/09/17 05:28:03;;;;;;;;;;;16.60;99.90;;;;;;5157179;27;19907;-43
2023/09/17 05:30:29;;;;;;;;;;;16.50;99.90;;;;;;5157182;27;20392;-42
2023/09/17 05:32:54;;;;;;;;;;;16.60;99.90;;;;;;5156863;27;19919;-42
2023/09/17 05:35:20;;;;;;;;;;;16.60;99.90;;;;;;5157044;27;20006;-43
2023/09/17 05:37:45;;;;;;;;;;;16.60;99.90;;;;;;5157263;27;19913;-44
2023/09/17 05:40:11;;;;;;;;;;;16.60;99.90;;;;;;5156883;27;19907;-43
2023/09/17 05:42:37;;;;;;;;;;;16.60;99.90;;;;;;5156858;27;20011;-44
2023/09/17 05:45:03;;;;;;;;;;;16.60;99.90;;;;;;5136943;27;19943;-47
2023/09/17 05:47:29;;;;;;;;;;;16.70;99.90;;;;;;5136127;27;20004;-41
2023/09/17 05:49:55;;;;;;;;;;;16.60;99.90;;;;;;5136107;27;19922;-43
2023/09/17 05:52:21;;;;;;;;;;;16.70;99.90;;;;;;5135959;27;20458;-47
2023/09/17 05:54:46;;;;;;;;;;;16.70;99.90;;;;;;5140315;27;20018;-42
2023/09/17 05:57:12;;;;;;;;;;;16.70;99.90;;;;;;5156563;27;20319;-45
2023/09/17 05:59:37;;;;;;;;;;;16.70;99.90;;;;;;5156658;27;20285;-42
2023/09/17 06:02:03;;;;;;;;;;;16.80;99.90;;;;;;5156320;27;19907;-44
2023/09/17 06:04:28;;;;;;;;;;;16.80;99.90;;;;;;5156589;27;20384;-41
2023/09/17 06:06:54;;;;;;;;;;;16.80;99.90;;;;;;5156483;27;19952;-43
2023/09/17 06:09:19;;;;;;;;;;;16.80;99.90;;;;;;5156862;27;19907;-42
2023/09/17 06:11:45;;;;;;;;;;;16.80;99.90;;;;;;5156367;27;19915;-42
2023/09/17 06:14:10;;;;;;;;;;;16.80;99.90;;;;;;5156309;27;19980;-41
2023/09/17 06:16:36;;;;;;;;;;;16.90;99.90;;;;;;5156627;27;19945;-43
2023/09/17 06:19:01;;;;;;;;;;;16.90;99.90;;;;;;5156316;27;20281;-43
2023/09/17 06:21:27;;;;;;;;;;;16.90;99.90;;;;;;5127654;27;20049;-48
2023/09/17 06:23:53;;;;;;;;;;;16.90;99.90;;;;;;5126250;27;19908;-44
2023/09/17 06:26:18;;;;;;;;;;;17.00;99.90;;;;;;5135025;27;19987;-42
2023/09/17 06:28:44;;;;;;;;;;;17.00;99.90;;;;;;5143658;27;20406;-41
2023/09/17 06:31:09;;;;;;;;;;;17.00;99.90;;;;;;5135829;27;19919;-43
2023/09/17 06:33:35;;;;;;;;;;;17.00;99.90;;;;;;5137028;27;19919;-43
2023/09/17 06:36:01;;;;;;;;;;;17.00;99.90;;;;;;5138969;27;20285;-43
2023/09/17 06:38:26;;;;;;;;;;;17.10;99.90;;;;;;5145348;27;19915;-42
2023/09/17 06:40:52;;;;;;;;;;;17.10;99.90;;;;;;5145750;27;19964;-43
2023/09/17 06:43:17;;;;;;;;;;;17.10;99.90;;;;;;5127966;27;19912;-43
2023/09/17 06:45:43;;;;;;;;;;;17.10;99.90;;;;;;5145112;27;19915;-43
2023/09/17 06:48:08;;;;;;;;;;;17.20;99.90;;;;;;5147904;27;19917;-43
2023/09/17 06:50:34;;;;;;;;;;;17.20;99.90;;;;;;5135454;27;19926;-42
2023/09/17 06:53:00;;;;;;;;;;;17.20;99.90;;;;;;5141543;27;19958;-43
2023/09/17 06:55:25;;;;;;;;;;;17.30;99.90;;;;;;5141669;27;19911;-43
2023/09/17 06:57:51;;;;;;;;;;;17.30;99.90;;;;;;5141645;27;19915;-46
2023/09/17 07:00:16;;;;;;;;;;;17.30;99.90;;;;;;5144739;27;19919;-44
2023/09/17 07:02:42;;;;;;;;;;;17.40;99.90;;;;;;5142725;27;19968;-42
2023/09/17 07:05:08;;;;;;;;;;;17.40;99.90;;;;;;5140485;27;19919;-41
2023/09/17 07:07:34;;;;;;;;;;;17.40;99.90;;;;;;5139690;27;19911;-43
2023/09/17 07:10:00;;;;;;;;;;;17.50;99.90;;;;;;5128608;27;19911;-43
2023/09/17 07:12:25;;;;;;;;;;;17.50;99.90;;;;;;5134561;27;19998;-43
2023/09/17 07:14:51;;;;;;;;;;;17.50;99.90;;;;;;5122096;27;20014;-44
2023/09/17 07:17:16;;;;;;;;;;;17.60;99.90;;;;;;5145883;27;19915;-43
2023/09/17 07:19:42;;;;;;;;;;;17.60;99.90;;;;;;5138805;27;19915;-41
2023/09/17 07:22:11;;;;;;;;;;;17.60;99.90;;;;;;5134237;27;19964;-42
2023/09/17 07:24:37;;;;;;;;;;;17.60;99.90;;;;;;5143939;27;19927;-42
2023/09/17 07:27:03;;;;;;;;;;;17.60;99.90;;;;;;5154886;27;19907;-42
2023/09/17 07:29:29;;;;;;;;;;;17.70;99.90;;;;;;5154882;27;20300;-45
2023/09/17 07:31:54;;;;;;;;;;;17.70;99.90;;;;;;5154140;27;19925;-43
2023/09/17 07:34:20;;;;;;;;;;;17.80;99.90;;;;;;5136701;27;19915;-42
2023/09/17 07:36:46;;;;;;;;;;;17.90;99.90;;;;;;5133696;27;20405;-43
2023/09/17 07:39:12;;;;;;;;;;;17.90;99.90;;;;;;5134890;27;19919;-43
2023/09/17 07:41:37;;;;;;;;;;;18.10;99.90;;;;;;5145333;27;19907;-42
2023/09/17 07:44:03;;;;;;;;;;;18.10;99.90;;;;;;5139180;27;20307;-45
2023/09/17 07:46:29;;;;;;;;;;;18.20;99.90;;;;;;5146819;27;19918;-45
2023/09/17 07:48:54;;;;;;;;;;;18.20;99.90;;;;;;5137443;27;19908;-41
2023/09/17 07:51:20;;;;;;;;;;;18.30;99.90;;;;;;5136772;27;19918;-42
2023/09/17 07:53:46;;;;;;;;;;;18.30;99.90;;;;;;5154535;27;20309;-44
2023/09/17 07:56:12;;;;;;;;;;;18.40;99.90;;;;;;5154444;27;19921;-47
2023/09/17 07:58:37;;;;;;;;;;;18.40;99.90;;;;;;5154350;27;19907;-43
2023/09/17 08:01:06;;;;;;;;;;;18.40;99.90;;;;;;5154482;27;20394;-45
2023/09/17 08:03:31;;;;;;;;;;;18.40;99.90;;;;;;5154505;27;20036;-41
2023/09/17 08:05:57;;;;;;;;;;;18.40;99.90;;;;;;5154559;27;19968;-42
2023/09/17 08:08:22;;;;;;;;;;;18.40;99.90;;;;;;5154237;27;19907;-43
2023/09/17 08:10:48;;;;;;;;;;;18.40;99.90;;;;;;5154306;27;19915;-43
2023/09/17 08:13:14;;;;;;;;;;;18.40;99.90;;;;;;5154317;27;19968;-42
2023/09/17 08:15:40;;;;;;;;;;;18.40;99.90;;;;;;5154610;27;19907;-42
2023/09/17 08:18:05;;;;;;;;;;;18.40;99.90;;;;;;5154255;27;20006;-44
2023/09/17 08:20:31;;;;;;;;;;;18.40;99.90;;;;;;5154285;27;19909;-41
2023/09/17 08:22:58;;;;;;;;;;;18.40;99.90;;;;;;5153687;27;19964;-41
2023/09/17 08:25:24;;;;;;;;;;;18.40;99.90;;;;;;5131106;27;19915;-42
2023/09/17 08:27:51;;;;;;;;;;;18.40;99.90;;;;;;5130738;28;20377;-43
2023/09/17 08:30:17;;;;;;;;;;;18.40;99.90;;;;;;5133373;28;20465;-46
2023/09/17 08:32:43;;;;;;;;;;;18.50;99.90;;;;;;5133256;28;19958;-42
2023/09/17 08:35:09;;;;;;;;;;;18.60;99.90;;;;;;5133437;28;19907;-44
2023/09/17 08:37:35;;;;;;;;;;;18.70;99.90;;;;;;5133352;28;20423;-43
2023/09/17 08:40:01;;;;;;;;;;;18.80;99.90;;;;;;5133504;28;19908;-43
2023/09/17 08:42:27;;;;;;;;;;;18.80;99.90;;;;;;5133354;28;19942;-43
2023/09/17 08:44:56;;;;;;;;;;;18.90;99.90;;;;;;5133186;28;20289;-42
2023/09/17 08:47:22;;;;;;;;;;;18.90;99.90;;;;;;5133266;28;19907;-42
2023/09/17 08:49:47;;;;;;;;;;;18.90;99.90;;;;;;5133303;28;19923;-43
2023/09/17 08:52:15;;;;;;;;;;;18.90;99.90;;;;;;5133132;28;19923;-46
2023/09/17 08:54:41;;;;;;;;;;;18.90;99.90;;;;;;5147853;27;19918;-46
2023/09/17 08:57:08;;;;;;;;;;;18.90;99.90;;;;;;5153837;27;20309;-42
2023/09/17 08:59:37;;;;;;;;;;;18.90;99.90;;;;;;5157279;27;19911;-43
2023/09/17 09:02:07;;;;;;;;;;;19.00;99.90;;;;;;5157144;27;19942;-43
2023/09/17 09:04:34;;;;;;;;;;;19.00;99.90;;;;;;5157857;27;19975;-43
2023/09/17 09:07:01;;;;;;;;;;;19.00;99.90;;;;;;5157732;27;19913;-43
2023/09/17 09:09:26;;;;;;;;;;;19.10;99.90;;;;;;5157705;27;19911;-45
2023/09/17 09:11:52;;;;;;;;;;;19.10;99.90;;;;;;5157213;27;19964;-42
2023/09/17 09:14:18;;;;;;;;;;;19.20;99.90;;;;;;5157494;27;19913;-43
2023/09/17 09:16:44;;;;;;;;;;;19.20;99.90;;;;;;5157628;27;20366;-42
2023/09/17 09:19:10;;;;;;;;;;;19.30;99.90;;;;;;5157501;27;20036;-44
2023/09/17 09:21:36;;;;;;;;;;;19.30;99.90;;;;;;5151362;27;20380;-43
2023/09/17 09:24:01;;;;;;;;;;;19.30;99.90;;;;;;5147709;27;19907;-44
2023/09/17 09:26:37;;;;;;;;;;;19.30;99.90;;;;;;5157318;27;19911;-43
2023/09/17 09:29:04;;;;;;;;;;;19.30;99.90;;;;;;5132694;27;19907;-43
2023/09/17 09:31:30;;;;;;;;;;;19.20;99.90;;;;;;5136352;27;19916;-45
2023/09/17 09:33:56;;;;;;;;;;;19.20;99.90;;;;;;5136422;27;19931;-42
2023/09/17 09:36:22;;;;;;;;;;;19.30;99.90;;;;;;5136400;27;19953;-43
2023/09/17 09:38:49;;;;;;;;;;;19.30;99.90;;;;;;5134044;27;19961;-44
2023/09/17 09:41:14;;;;;;;;;;;19.30;99.90;;;;;;5135026;27;19907;-44
2023/09/17 09:43:42;;;;;;;;;;;19.40;99.90;;;;;;5134604;27;20044;-44
2023/09/17 09:46:08;;;;;;;;;;;19.50;99.90;;;;;;5135934;27;19939;-43
2023/09/17 09:48:38;;;;;;;;;;;19.60;99.90;;;;;;5135772;27;19912;-42
2023/09/17 09:51:03;;;;;;;;;;;19.60;99.90;;;;;;5137052;27;19919;-42
2023/09/17 09:53:29;;;;;;;;;;;19.60;99.90;;;;;;5142145;27;19918;-46
2023/09/17 09:55:55;;;;;;;;;;;19.60;99.90;;;;;;5135855;27;19951;-43
2023/09/17 09:58:20;;;;;;;;;;;19.60;99.90;;;;;;5138955;27;19919;-42
2023/09/17 10:00:46;;;;;;;;;;;19.60;99.90;;;;;;5141609;27;20386;-43
2023/09/17 10:03:12;;;;;;;;;;;19.50;99.90;;;;;;5152342;27;19923;-42
2023/09/17 10:05:39;;;;;;;;;;;19.60;99.90;;;;;;5141125;27;20341;-43
2023/09/17 10:08:07;;;;;;;;;;;19.60;99.90;;;;;;5143544;27;19953;-43
2023/09/17 10:10:32;;;;;;;;;;;19.60;99.90;;;;;;5146541;27;19919;-45
2023/09/17 10:12:59;;;;;;;;;;;19.50;99.90;;;;;;5154528;27;20039;-43
2023/09/17 10:15:25;;;;;;;;;;;19.50;99.90;;;;;;5140415;27;19964;-45
2023/09/17 10:17:51;;;;;;;;;;;19.60;99.90;;;;;;5131807;27;19916;-42
2023/09/17 10:20:18;;;;;;;;;;;19.60;99.90;;;;;;5135157;27;19907;-42
2023/09/17 10:22:46;;;;;;;;;;;19.60;99.90;;;;;;5135042;27;20328;-42
2023/09/17 10:25:14;;;;;;;;;;;19.70;99.90;;;;;;5134810;27;20316;-42
2023/09/17 10:27:42;;;;;;;;;;;19.80;99.90;;;;;;5134350;27;19912;-42
2023/09/17 10:30:08;;;;;;;;;;;20.00;99.90;;;;;;5129903;27;19911;-43
2023/09/17 10:32:34;;;;;;;;;;;20.10;99.90;;;;;;5134666;27;19920;-42
2023/09/17 10:35:00;;;;;;;;;;;20.30;99.90;;;;;;5134860;27;19964;-44
2023/09/17 10:37:26;;;;;;;;;;;20.50;99.90;;;;;;5134592;27;19911;-44
2023/09/17 10:39:52;;;;;;;;;;;20.80;99.90;;;;;;5134989;27;19908;-43
2023/09/17 10:42:19;;;;;;;;;;;21.10;99.90;;;;;;5135595;27;19907;-44
2023/09/17 10:44:48;;;;;;;;;;;21.20;99.90;;;;;;5143316;27;20405;-46
2023/09/17 10:47:16;;;;;;;;;;;21.20;99.90;;;;;;5135752;27;19980;-46
2023/09/17 10:49:41;;;;;;;;;;;21.20;99.90;;;;;;5135396;27;19947;-42
2023/09/17 10:52:08;;;;;;;;;;;21.10;99.90;;;;;;5135260;27;19978;-44
2023/09/17 10:54:33;;;;;;;;;;;21.00;99.90;;;;;;5135526;27;19915;-46
2023/09/17 10:57:01;;;;;;;;;;;20.90;99.90;;;;;;5135205;27;19911;-43
2023/09/17 10:59:27;;;;;;;;;;;20.80;99.90;;;;;;5135242;27;20006;-43
2023/09/17 11:01:53;;;;;;;;;;;20.80;99.90;;;;;;5134814;27;20314;-43
2023/09/17 11:04:20;;;;;;;;;;;20.70;99.90;;;;;;5128733;27;20413;-43
2023/09/17 11:06:47;;;;;;;;;;;20.50;99.90;;;;;;5123017;27;19915;-42
2023/09/17 11:09:13;;;;;;;;;;;20.40;99.90;;;;;;5113837;28;19973;-43
2023/09/17 11:11:40;;;;;;;;;;;20.30;99.90;;;;;;5113831;28;19916;-42
2023/09/17 11:14:06;;;;;;;;;;;20.30;99.90;;;;;;5120456;27;19918;-42
2023/09/17 11:16:32;;;;;;;;;;;20.30;99.90;;;;;;5155357;27;19907;-43
2023/09/17 11:19:11;;;;;;;;;;;20.40;99.90;;;;;;5155160;27;20274;-45
2023/09/17 11:21:41;;;;;;;;;;;20.50;99.90;;;;;;5133697;27;20011;-43
2023/09/17 11:24:07;;;;;;;;;;;20.70;99.90;;;;;;5132255;27;19911;-44
2023/09/17 11:26:37;;;;;;;;;;;20.90;99.90;;;;;;5144698;27;19918;-44
2023/09/17 11:29:05;;;;;;;;;;;21.20;99.90;;;;;;5130103;27;19915;-47
2023/09/17 11:31:35;;;;;;;;;;;21.60;99.90;;;;;;5124057;27;19980;-42
2023/09/17 11:34:01;;;;;;;;;;;21.80;99.90;;;;;;5123546;27;19919;-43
2023/09/17 11:36:27;;;;;;;;;;;22.00;99.90;;;;;;5119471;27;19911;-44
2023/09/17 11:38:52;;;;;;;;;;;22.10;99.90;;;;;;5142528;27;19918;-44
2023/09/17 11:41:24;;;;;;;;;;;22.30;99.90;;;;;;5137460;27;19911;-43
2023/09/17 11:43:50;;;;;;;;;;;22.50;99.90;;;;;;5140308;27;19921;-42
2023/09/17 11:46:16;;;;;;;;;;;22.60;99.90;;;;;;5150046;27;19947;-43
2023/09/17 11:48:43;;;;;;;;;;;22.70;99.90;;;;;;5133768;27;19911;-44
2023/09/17 11:51:19;;;;;;;;;;;22.70;99.90;;;;;;5133836;27;19959;-43
2023/09/17 11:54:05;;;;;;;;;;;22.60;99.90;;;;;;5134045;27;19934;-43
2023/09/17 11:56:45;;;;;;;;;;;22.60;99.90;;;;;;5136465;27;19914;-44
2023/09/17 11:59:15;;;;;;;;;;;22.60;99.90;;;;;;5145210;27;20298;-42
2023/09/17 12:01:41;;;;;;;;;;;22.50;99.90;;;;;;5138610;27;20380;-43
2023/09/17 12:04:07;;;;;;;;;;;22.40;99.90;;;;;;5150192;27;19911;-43
2023/09/17 12:06:34;;;;;;;;;;;22.40;99.90;;;;;;5146135;27;19911;-43
2023/09/17 12:09:06;;;;;;;;;;;22.40;99.90;;;;;;5134770;27;19914;-45
2023/09/17 12:11:34;;;;;;;;;;;22.40;99.90;;;;;;5142099;27;19951;-45
2023/09/17 12:13:59;;;;;;;;;;;22.30;99.90;;;;;;5143437;27;19908;-42
2023/09/17 12:16:26;;;;;;;;;;;22.30;99.90;;;;;;5133627;27;19911;-43
2023/09/17 12:18:52;;;;;;;;;;;22.20;99.90;;;;;;5132367;27;19907;-44
2023/09/17 12:21:19;;;;;;;;;;;22.20;99.90;;;;;;5138755;27;19919;-42
2023/09/17 12:24:28;;;;;;;;;;;22.20;99.90;;;;;;5138856;27;20400;-43
2023/09/17 12:26:45;;;;;;;;;;;22.20;99.90;;;;;;5136685;27;19911;-42
2023/09/17 12:29:11;;;;;;;;;;;22.30;99.90;;;;;;5138768;27;19994;-43
2023/09/17 12:31:37;;;;;;;;;;;22.20;99.90;;;;;;5142808;27;20026;-43
2023/09/17 12:34:03;;;;;;;;;;;22.20;99.90;;;;;;5145879;27;19911;-43
2023/09/17 12:36:29;;;;;;;;;;;22.10;99.90;;;;;;5142142;27;19911;-43
2023/09/17 12:38:56;;;;;;;;;;;22.10;99.90;;;;;;5143437;27;19963;-43
2023/09/17 12:41:21;;;;;;;;;;;22.20;99.90;;;;;;5148793;27;19918;-44
2023/09/17 12:43:47;;;;;;;;;;;22.20;99.90;;;;;;5137416;27;20002;-43
2023/09/17 12:46:13;;;;;;;;;;;22.20;99.90;;;;;;5152064;27;19907;-43
2023/09/17 12:48:38;;;;;;;;;;;22.30;99.90;;;;;;5141527;27;19954;-42
2023/09/17 12:51:04;;;;;;;;;;;22.50;99.90;;;;;;5147506;27;20425;-43
2023/09/17 12:53:30;;;;;;;;;;;22.70;99.90;;;;;;5142709;27;19994;-45
2023/09/17 12:56:00;;;;;;;;;;;22.80;99.90;;;;;;5144826;27;20353;-41
2023/09/17 12:58:25;;;;;;;;;;;22.80;99.90;;;;;;5136014;27;19926;-48
2023/09/17 13:00:51;;;;;;;;;;;22.90;99.90;;;;;;5137131;27;19930;-44
2023/09/17 13:03:18;;;;;;;;;;;22.70;99.90;;;;;;5136101;27;19912;-42
2023/09/17 13:05:45;;;;;;;;;;;22.70;99.90;;;;;;5130908;27;19929;-44
2023/09/17 13:08:11;;;;;;;;;;;22.60;99.90;;;;;;5129359;27;19955;-42
2023/09/17 13:10:37;;;;;;;;;;;22.50;99.90;;;;;;5117065;28;19958;-43
2023/09/17 13:13:04;;;;;;;;;;;22.50;99.90;;;;;;5117079;28;19999;-45
2023/09/17 13:15:29;;;;;;;;;;;22.40;99.90;;;;;;5117193;28;19912;-43
2023/09/17 13:17:55;;;;;;;;;;;22.30;99.90;;;;;;5116989;28;19908;-43
2023/09/17 13:20:20;;;;;;;;;;;22.30;99.90;;;;;;5116955;28;20010;-44
2023/09/17 13:22:47;;;;;;;;;;;22.30;99.90;;;;;;5116857;28;19954;-44
2023/09/17 13:25:13;;;;;;;;;;;22.20;99.90;;;;;;5116716;28;19907;-42
2023/09/17 13:27:38;;;;;;;;;;;22.30;99.90;;;;;;5150640;27;19918;-44
2023/09/17 13:30:05;;;;;;;;;;;22.20;99.90;;;;;;5157774;27;19914;-44
2023/09/17 13:32:31;;;;;;;;;;;22.20;99.90;;;;;;5157685;27;20346;-42
2023/09/17 13:34:57;;;;;;;;;;;22.10;99.90;;;;;;5154092;27;19911;-42
2023/09/17 13:37:23;;;;;;;;;;;22.10;99.90;;;;;;5156142;27;19907;-43
2023/09/17 13:39:49;;;;;;;;;;;22.00;99.90;;;;;;5157750;27;20339;-44
2023/09/17 13:42:14;;;;;;;;;;;21.90;99.90;;;;;;5157718;27;19958;-42
2023/09/17 13:44:40;;;;;;;;;;;21.90;99.90;;;;;;5157648;27;19915;-45
2023/09/17 13:47:07;;;;;;;;;;;22.00;99.90;;;;;;5157199;27;19946;-41
2023/09/17 13:49:32;;;;;;;;;;;22.10;99.90;;;;;;5157625;27;19907;-43
2023/09/17 13:51:58;;;;;;;;;;;22.40;99.90;;;;;;5157541;27;19984;-46
2023/09/17 13:54:23;;;;;;;;;;;22.70;99.90;;;;;;5157442;27;19918;-43
2023/09/17 13:56:49;;;;;;;;;;;23.00;99.90;;;;;;5149483;27;19908;-44
2023/09/17 13:59:14;;;;;;;;;;;23.00;99.90;;;;;;5136711;27;19918;-43
2023/09/17 14:01:40;;;;;;;;;;;22.90;99.90;;;;;;5136540;27;19915;-44
2023/09/17 14:04:06;;;;;;;;;;;22.80;99.90;;;;;;5136478;27;20468;-43
2023/09/17 14:06:31;;;;;;;;;;;22.70;99.90;;;;;;5136525;27;19959;-42
2023/09/17 14:08:57;;;;;;;;;;;22.60;99.90;;;;;;5136468;27;20541;-42
2023/09/17 14:11:26;;;;;;;;;;;22.60;99.90;;;;;;5136222;27;19967;-45